createdAt,value
2018-02-17T00:02:23.876Z,12.37
2018-02-17T00:04:51.519Z,12.37
2018-02-17T00:07:19.903Z,11.27
2018-02-17T00:09:48.267Z,14.90
2018-02-17T00:12:15.912Z,10.30
2018-02-17T00:14:43.486Z,13.90
2018-02-17T00:17:11.071Z,16.30
2018-02-17T00:19:38.679Z,10.23
2018-02-17T00:22:06.246Z,7.97
2018-02-17T00:24:34.626Z,12.13
2018-02-17T00:27:02.245Z,10.07
2018-02-17T00:29:29.841Z,12.20
2018-02-17T00:31:58.238Z,10.67
2018-02-17T00:34:26.611Z,13.37
2018-02-17T00:36:54.956Z,12.67
2018-02-17T00:39:22.538Z,10.23
2018-02-17T00:41:50.130Z,9.23
2018-02-17T00:44:17.719Z,11.40
2018-02-17T00:46:45.342Z,9.10
2018-02-17T00:49:12.960Z,15.30
2018-02-17T00:51:40.596Z,17.03
2018-02-17T00:54:08.165Z,12.80
2018-02-17T00:56:36.561Z,12.50
2018-02-17T00:59:04.913Z,13.10
2018-02-17T01:01:32.483Z,14.43
2018-02-17T01:04:00.116Z,15.07
2018-02-17T01:06:28.341Z,13.80
2018-02-17T01:08:55.945Z,17.73
2018-02-17T01:11:23.546Z,15.10
2018-02-17T01:13:51.129Z,13.73
2018-02-17T01:16:18.791Z,19.17
2018-02-17T01:18:46.414Z,18.97
2018-02-17T01:21:13.991Z,16.63
2018-02-17T01:23:41.576Z,16.07
2018-02-17T01:26:09.173Z,19.07
2018-02-17T01:28:36.758Z,16.90
2018-02-17T01:31:05.189Z,17.97
2018-02-17T01:33:33.546Z,15.20
2018-02-17T01:36:01.131Z,18.53
2018-02-17T01:38:28.719Z,15.73
2018-02-17T01:40:56.765Z,18.47
2018-02-17T01:43:24.461Z,16.10
2018-02-17T01:45:52.078Z,15.83
2018-02-17T01:48:20.409Z,13.53
2018-02-17T01:50:48.003Z,13.40
2018-02-17T01:53:17.490Z,12.83
2018-02-17T01:55:45.078Z,17.53
2018-02-17T01:58:12.689Z,16.20
2018-02-17T02:00:40.281Z,18.20
2018-02-17T02:03:07.889Z,18.47
2018-02-17T02:05:38.520Z,18.00
2018-02-17T02:08:06.870Z,18.73
2018-02-17T02:10:34.476Z,17.27
2018-02-17T02:13:02.173Z,17.57
2018-02-17T02:15:30.253Z,18.33
2018-02-17T02:17:58.145Z,17.43
2018-02-17T02:20:25.731Z,15.70
2018-02-17T02:22:53.331Z,19.27
2018-02-17T02:25:20.926Z,21.60
2018-02-17T02:27:48.564Z,20.13
2018-02-17T02:30:16.923Z,17.10
2018-02-17T02:32:45.356Z,17.00
2018-02-17T02:35:13.000Z,16.77
2018-02-17T02:37:40.586Z,15.73
2018-02-17T02:40:08.217Z,14.53
2018-02-17T02:42:35.861Z,17.47
2018-02-17T02:45:03.428Z,18.20
2018-02-17T02:47:31.041Z,18.70
2018-02-17T02:49:58.637Z,15.17
2018-02-17T02:52:26.227Z,13.93
2018-02-17T02:54:53.802Z,15.70
2018-02-17T02:57:21.388Z,19.43
2018-02-17T02:59:48.972Z,16.00
2018-02-17T03:02:17.060Z,19.93
2018-02-17T03:04:44.647Z,16.00
2018-02-17T03:07:12.258Z,18.63
2018-02-17T03:09:40.610Z,16.83
2018-02-17T03:12:08.196Z,17.27
2018-02-17T03:14:36.547Z,20.87
2018-02-17T03:17:04.161Z,28.47
2018-02-17T03:19:31.766Z,23.37
2018-02-17T03:21:59.382Z,24.40
2018-02-17T03:24:27.737Z,25.70
2018-02-17T03:26:55.333Z,26.87
2018-02-17T03:29:22.908Z,25.13
2018-02-17T03:31:50.532Z,29.10
2018-02-17T03:34:18.111Z,30.90
2018-02-17T03:36:45.699Z,29.83
2018-02-17T03:39:13.289Z,32.17
2018-02-17T03:41:40.875Z,29.20
2018-02-17T03:44:08.473Z,37.20
2018-02-17T03:46:38.186Z,25.60
2018-02-17T03:49:06.562Z,27.47
2018-02-17T03:51:34.183Z,19.20
2018-02-17T03:54:01.804Z,20.00
2018-02-17T03:56:30.159Z,20.53
2018-02-17T03:58:57.749Z,17.20
2018-02-17T04:01:26.684Z,18.97
2018-02-17T04:03:54.247Z,16.57
2018-02-17T04:06:21.861Z,18.90
2018-02-17T04:08:50.039Z,17.53
2018-02-17T04:11:17.617Z,20.13
2018-02-17T04:13:45.968Z,20.20
2018-02-17T04:16:13.573Z,18.10
2018-02-17T04:18:41.146Z,20.20
2018-02-17T04:21:08.736Z,20.20
2018-02-17T04:23:36.320Z,25.60
2018-02-17T04:26:03.913Z,21.70
2018-02-17T04:28:32.278Z,22.83
2018-02-17T04:30:59.882Z,17.50
2018-02-17T04:33:27.472Z,22.13
2018-02-17T04:35:55.068Z,22.60
2018-02-17T04:38:22.739Z,20.60
2018-02-17T04:40:54.089Z,21.57
2018-02-17T04:43:27.241Z,20.67
2018-02-17T04:46:00.533Z,20.63
2018-02-17T04:48:33.714Z,27.50
2018-02-17T04:51:19.123Z,18.53
2018-02-17T04:54:07.380Z,22.70
2018-02-17T04:56:40.522Z,21.27
2018-02-17T04:59:13.658Z,22.33
2018-02-17T05:01:46.139Z,20.30
2018-02-17T05:04:19.380Z,26.47
2018-02-17T05:07:05.861Z,26.93
2018-02-17T05:09:34.271Z,20.43
2018-02-17T05:12:01.924Z,17.47
2018-02-17T05:14:30.469Z,20.57
2018-02-17T05:17:03.833Z,19.33
2018-02-17T05:19:46.305Z,21.60
2018-02-17T05:22:18.570Z,19.93
2018-02-17T05:24:46.777Z,20.93
2018-02-17T05:27:19.322Z,22.40
2018-02-17T05:30:06.387Z,19.43
2018-02-17T05:32:36.293Z,17.97
2018-02-17T05:35:12.424Z,20.97
2018-02-17T05:37:40.024Z,20.80
2018-02-17T05:40:10.386Z,19.87
2018-02-17T05:42:41.664Z,18.83
2018-02-17T05:45:14.273Z,23.53
2018-02-17T05:47:45.372Z,20.97
2018-02-17T05:50:23.663Z,20.77
2018-02-17T05:52:51.694Z,22.50
2018-02-17T05:55:19.287Z,21.87
2018-02-17T05:57:46.866Z,24.70
2018-02-17T06:00:14.482Z,21.30
2018-02-17T06:02:42.093Z,23.40
2018-02-17T06:05:09.685Z,19.30
2018-02-17T06:07:38.108Z,28.57
2018-02-17T06:10:05.711Z,24.50
2018-02-17T06:12:33.319Z,33.07
2018-02-17T06:15:00.909Z,30.70
2018-02-17T06:17:28.519Z,34.80
2018-02-17T06:19:56.110Z,33.77
2018-02-17T06:22:23.719Z,27.30
2018-02-17T06:24:51.335Z,25.93
2018-02-17T06:27:18.917Z,18.53
2018-02-17T06:29:46.602Z,19.60
2018-02-17T06:32:14.192Z,24.53
2018-02-17T06:34:41.757Z,22.00
2018-02-17T06:37:09.366Z,24.80
2018-02-17T06:39:36.950Z,19.00
2018-02-17T06:42:04.538Z,19.90
2018-02-17T06:44:32.125Z,20.60
2018-02-17T06:46:59.712Z,19.50
2018-02-17T06:49:28.065Z,19.37
2018-02-17T06:51:55.661Z,25.67
2018-02-17T06:54:23.259Z,25.00
2018-02-17T06:56:50.847Z,20.07
2018-02-17T06:59:18.460Z,25.50
2018-02-17T07:01:46.022Z,22.83
2018-02-17T07:04:13.610Z,20.63
2018-02-17T07:06:41.290Z,26.20
2018-02-17T07:09:08.824Z,24.67
2018-02-17T07:11:36.400Z,28.97
2018-02-17T07:14:04.002Z,20.70
2018-02-17T07:16:31.573Z,19.23
2018-02-17T07:18:59.157Z,24.17
2018-02-17T07:21:26.776Z,26.53
2018-02-17T07:23:54.374Z,23.80
2018-02-17T07:26:21.968Z,23.57
2018-02-17T07:28:49.590Z,24.87
2018-02-17T07:31:17.201Z,30.53
2018-02-17T07:33:44.768Z,33.07
2018-02-17T07:36:12.330Z,27.60
2018-02-17T07:38:40.008Z,25.63
2018-02-17T07:41:07.612Z,29.50
2018-02-17T07:43:35.242Z,24.73
2018-02-17T07:46:02.848Z,25.67
2018-02-17T07:48:30.433Z,27.63
2018-02-17T07:50:58.080Z,23.27
2018-02-17T07:53:25.715Z,26.63
2018-02-17T07:55:53.320Z,32.73
2018-02-17T07:58:20.921Z,26.73
2018-02-17T08:00:48.513Z,28.87
2018-02-17T08:03:16.118Z,28.77
2018-02-17T08:05:43.715Z,31.50
2018-02-17T08:08:12.090Z,28.20
2018-02-17T08:10:39.704Z,31.50
2018-02-17T08:13:07.300Z,28.50
2018-02-17T08:15:34.904Z,30.93
2018-02-17T08:18:02.590Z,26.80
2018-02-17T08:20:30.197Z,26.97
2018-02-17T08:22:57.786Z,26.80
2018-02-17T08:25:26.177Z,24.33
2018-02-17T08:27:54.532Z,26.93
2018-02-17T08:30:22.144Z,27.20
2018-02-17T08:32:49.755Z,29.53
2018-02-17T08:35:17.345Z,25.77
2018-02-17T08:37:45.108Z,25.97
2018-02-17T08:40:13.473Z,29.80
2018-02-17T08:42:41.051Z,24.27
2018-02-17T08:45:09.404Z,26.47
2018-02-17T08:47:37.037Z,29.27
2018-02-17T08:50:04.605Z,30.93
2018-02-17T08:52:32.183Z,27.87
2018-02-17T08:54:59.804Z,29.13
2018-02-17T08:57:28.146Z,29.27
2018-02-17T08:59:55.740Z,26.93
2018-02-17T09:02:23.398Z,30.10
2018-02-17T09:04:51.006Z,25.20
2018-02-17T09:07:18.587Z,25.33
2018-02-17T09:09:46.189Z,31.70
2018-02-17T09:12:14.541Z,27.90
2018-02-17T09:14:42.112Z,24.20
2018-02-17T09:17:09.700Z,26.50
2018-02-17T09:19:37.301Z,23.33
2018-02-17T09:22:05.634Z,24.23
2018-02-17T09:24:33.214Z,27.23
2018-02-17T09:27:00.790Z,28.50
2018-02-17T09:29:28.379Z,25.70
2018-02-17T09:31:56.798Z,27.20
2018-02-17T09:34:24.376Z,26.10
2018-02-17T09:36:51.992Z,25.13
2018-02-17T09:39:19.584Z,26.57
2018-02-17T09:41:47.136Z,29.50
2018-02-17T09:44:14.737Z,23.70
2018-02-17T09:46:42.341Z,26.77
2018-02-17T09:49:11.303Z,29.10
2018-02-17T09:51:38.938Z,26.87
2018-02-17T09:54:06.530Z,28.90
2018-02-17T09:56:34.132Z,24.03
2018-02-17T09:59:05.507Z,30.17
2018-02-17T10:01:33.851Z,27.57
2018-02-17T10:04:01.408Z,27.60
2018-02-17T10:06:29.000Z,33.03
2018-02-17T10:08:56.562Z,30.97
2018-02-17T10:11:24.157Z,25.63
2018-02-17T10:13:51.790Z,26.30
2018-02-17T10:16:19.379Z,30.67
2018-02-17T10:18:47.718Z,29.03
2018-02-17T10:21:15.312Z,27.67
2018-02-17T10:23:43.682Z,28.33
2018-02-17T10:26:11.284Z,30.23
2018-02-17T10:28:38.883Z,26.90
2018-02-17T10:31:06.458Z,31.60
2018-02-17T10:33:34.060Z,27.07
2018-02-17T10:36:02.414Z,28.00
2018-02-17T10:38:30.029Z,30.87
2018-02-17T10:40:57.610Z,30.27
2018-02-17T10:43:25.204Z,26.03
2018-02-17T10:45:52.765Z,29.40
2018-02-17T10:48:20.342Z,29.23
2018-02-17T10:50:47.962Z,27.27
2018-02-17T10:53:15.559Z,28.63
2018-02-17T10:55:43.139Z,31.17
2018-02-17T10:58:10.897Z,28.20
2018-02-17T11:00:39.320Z,30.43
2018-02-17T11:03:06.884Z,32.10
2018-02-17T11:05:35.218Z,30.10
2018-02-17T11:08:03.741Z,28.40
2018-02-17T11:10:31.844Z,28.93
2018-02-17T11:12:59.418Z,28.70
2018-02-17T11:15:26.975Z,30.30
2018-02-17T11:17:55.224Z,27.30
2018-02-17T11:20:22.841Z,26.53
2018-02-17T11:22:50.414Z,28.70
2018-02-17T11:25:18.007Z,24.13
2018-02-17T11:27:45.625Z,30.77
2018-02-17T11:30:13.205Z,26.90
2018-02-17T11:32:41.619Z,32.57
2018-02-17T11:35:09.216Z,28.90
2018-02-17T11:37:37.723Z,29.90
2018-02-17T11:40:06.161Z,27.77
2018-02-17T11:42:33.773Z,25.97
2018-02-17T11:45:01.379Z,27.60
2018-02-17T11:47:28.977Z,28.47
2018-02-17T11:49:57.365Z,29.23
2018-02-17T11:52:24.938Z,29.20
2018-02-17T11:54:53.291Z,29.00
2018-02-17T11:57:20.870Z,29.77
2018-02-17T11:59:48.446Z,27.80
2018-02-17T12:02:16.066Z,26.63
2018-02-17T12:04:43.662Z,30.07
2018-02-17T12:07:12.014Z,30.27
2018-02-17T12:09:39.593Z,31.30
2018-02-17T12:12:07.225Z,33.60
2018-02-17T12:14:34.839Z,30.43
2018-02-17T12:17:03.185Z,36.60
2018-02-17T12:19:30.775Z,34.90
2018-02-17T12:21:58.359Z,32.40
2018-02-17T12:24:26.708Z,32.03
2018-02-17T12:26:54.891Z,34.37
2018-02-17T12:29:22.512Z,34.07
2018-02-17T12:31:50.107Z,32.63
2018-02-17T12:34:17.697Z,36.00
2018-02-17T12:36:45.272Z,34.27
2018-02-17T12:39:13.612Z,33.40
2018-02-17T12:41:41.255Z,32.90
2018-02-17T12:44:08.857Z,35.33
2018-02-17T12:46:36.447Z,31.30
2018-02-17T12:49:04.025Z,30.60
2018-02-17T12:51:32.379Z,33.90
2018-02-17T12:53:59.970Z,32.93
2018-02-17T12:56:28.296Z,31.90
2018-02-17T12:58:57.011Z,34.67
2018-02-17T13:01:24.726Z,31.67
2018-02-17T13:03:53.052Z,33.60
2018-02-17T13:06:20.644Z,25.07
2018-02-17T13:08:48.284Z,32.73
2018-02-17T13:11:15.880Z,30.20
2018-02-17T13:13:44.244Z,25.90
2018-02-17T13:16:11.851Z,33.07
2018-02-17T13:18:40.201Z,27.30
2018-02-17T13:21:07.803Z,29.97
2018-02-17T13:23:35.395Z,24.83
2018-02-17T13:26:02.971Z,22.13
2018-02-17T13:28:30.588Z,22.97
2018-02-17T13:30:59.067Z,22.97
2018-02-17T13:33:28.798Z,21.37
2018-02-17T13:35:56.364Z,21.30
2018-02-17T13:38:25.254Z,19.67
2018-02-17T13:40:53.609Z,19.13
2018-02-17T13:43:21.982Z,23.47
2018-02-17T13:45:49.589Z,17.83
2018-02-17T13:48:17.164Z,21.80
2018-02-17T13:50:44.751Z,25.43
2018-02-17T13:53:12.344Z,26.27
2018-02-17T13:55:39.972Z,24.20
2018-02-17T13:58:07.557Z,26.73
2018-02-17T14:00:35.160Z,22.10
2018-02-17T14:03:03.533Z,24.17
2018-02-17T14:05:31.119Z,22.20
2018-02-17T14:07:59.485Z,23.07
2018-02-17T14:10:27.824Z,22.87
2018-02-17T14:12:55.410Z,19.37
2018-02-17T14:15:23.013Z,20.23
2018-02-17T14:17:51.359Z,22.40
2018-02-17T14:20:18.935Z,24.67
2018-02-17T14:22:47.306Z,24.00
2018-02-17T14:25:14.900Z,21.27
2018-02-17T14:27:43.256Z,20.73
2018-02-17T14:30:10.836Z,24.83
2018-02-17T14:32:39.197Z,24.90
2018-02-17T14:35:06.809Z,23.07
2018-02-17T14:37:34.366Z,22.10
2018-02-17T14:40:02.758Z,23.83
2018-02-17T14:42:31.089Z,24.40
2018-02-17T14:44:58.758Z,25.93
2018-02-17T14:47:26.331Z,24.27
2018-02-17T14:49:53.993Z,26.83
2018-02-17T14:52:21.629Z,25.20
2018-02-17T14:54:49.238Z,23.57
2018-02-17T14:57:16.843Z,22.33
2018-02-17T14:59:44.460Z,26.13
2018-02-17T15:02:12.063Z,25.77
2018-02-17T15:04:40.397Z,25.57
2018-02-17T15:07:08.032Z,25.77
2018-02-17T15:09:35.615Z,29.40
2018-02-17T15:12:03.286Z,28.27
2018-02-17T15:14:31.219Z,26.20
2018-02-17T15:16:58.799Z,26.87
2018-02-17T15:19:27.295Z,25.27
2018-02-17T15:21:55.649Z,28.97
2018-02-17T15:24:23.218Z,30.17
2018-02-17T15:26:51.547Z,31.13
2018-02-17T15:29:19.135Z,28.50
2018-02-17T15:31:46.726Z,25.40
2018-02-17T15:34:15.098Z,25.13
2018-02-17T15:36:43.469Z,26.27
2018-02-17T15:39:11.085Z,27.43
2018-02-17T15:41:39.598Z,32.13
2018-02-17T15:44:07.175Z,27.93
2018-02-17T15:46:34.756Z,23.17
2018-02-17T15:49:03.111Z,25.67
2018-02-17T15:51:30.735Z,29.23
2018-02-17T15:53:58.302Z,28.77
2018-02-17T15:56:26.017Z,25.20
2018-02-17T15:58:53.611Z,26.10
2018-02-17T16:01:21.978Z,27.03
2018-02-17T16:03:49.567Z,26.20
2018-02-17T16:06:17.963Z,25.27
2018-02-17T16:08:45.561Z,26.20
2018-02-17T16:11:13.171Z,27.77
2018-02-17T16:13:41.544Z,27.33
2018-02-17T16:16:09.126Z,29.87
2018-02-17T16:18:37.452Z,27.37
2018-02-17T16:21:05.064Z,24.50
2018-02-17T16:23:33.424Z,23.07
2018-02-17T16:26:01.034Z,27.07
2018-02-17T16:28:28.619Z,24.77
2018-02-17T16:30:56.213Z,29.60
2018-02-17T16:33:23.811Z,27.73
2018-02-17T16:35:51.429Z,25.53
2018-02-17T16:38:19.008Z,24.17
2018-02-17T16:40:46.602Z,27.47
2018-02-17T16:43:14.977Z,24.43
2018-02-17T16:45:42.565Z,26.87
2018-02-17T16:48:10.809Z,22.37
2018-02-17T16:50:38.425Z,24.10
2018-02-17T16:53:06.006Z,26.20
2018-02-17T16:55:33.586Z,24.97
2018-02-17T16:58:01.210Z,25.60
2018-02-17T17:00:30.250Z,22.57
2018-02-17T17:02:57.822Z,27.07
2018-02-17T17:05:25.426Z,22.70
2018-02-17T17:07:52.997Z,24.30
2018-02-17T17:10:21.328Z,27.43
2018-02-17T17:12:48.931Z,24.73
2018-02-17T17:15:16.580Z,30.93
2018-02-17T17:17:44.145Z,27.67
2018-02-17T17:20:11.743Z,31.63
2018-02-17T17:22:40.083Z,26.07
2018-02-17T17:25:07.711Z,26.77
2018-02-17T17:27:35.285Z,25.40
2018-02-17T17:30:02.883Z,30.07
2018-02-17T17:32:30.689Z,48.57
2018-02-17T17:34:59.142Z,304.57
2018-02-17T17:37:26.732Z,267.67
2018-02-17T17:39:55.125Z,161.63
2018-02-17T17:42:23.456Z,71.23
2018-02-17T17:44:51.029Z,54.10
2018-02-17T17:47:18.620Z,40.23
2018-02-17T17:49:46.948Z,32.03
2018-02-17T17:52:14.547Z,33.57
2018-02-17T17:54:42.253Z,33.23
2018-02-17T17:57:09.823Z,33.73
2018-02-17T17:59:38.435Z,33.07
2018-02-17T18:02:06.035Z,30.90
2018-02-17T18:04:33.633Z,29.67
2018-02-17T18:07:02.022Z,29.77
2018-02-17T18:09:30.354Z,29.93
2018-02-17T18:11:57.934Z,29.17
2018-02-17T18:14:25.516Z,34.03
2018-02-17T18:16:54.248Z,32.07
2018-02-17T18:19:22.426Z,49.03
2018-02-17T18:21:49.982Z,39.20
2018-02-17T18:24:17.568Z,36.90
2018-02-17T18:26:45.142Z,41.47
2018-02-17T18:29:12.734Z,44.17
2018-02-17T18:31:40.304Z,41.97
2018-02-17T18:34:07.891Z,44.43
2018-02-17T18:36:35.480Z,40.37
2018-02-17T18:39:03.092Z,40.73
2018-02-17T18:41:30.692Z,40.50
2018-02-17T18:43:58.313Z,41.33
2018-02-17T18:46:25.920Z,56.17
2018-02-17T18:48:53.773Z,46.97
2018-02-17T18:51:22.125Z,49.07
2018-02-17T18:53:49.719Z,42.43
2018-02-17T18:56:17.312Z,51.87
2018-02-17T18:58:44.937Z,40.83
2018-02-17T19:01:12.535Z,38.63
2018-02-17T19:03:40.123Z,38.90
2018-02-17T19:06:07.730Z,33.67
2018-02-17T19:08:35.320Z,31.40
2018-02-17T19:11:03.674Z,29.07
2018-02-17T19:13:31.300Z,29.03
2018-02-17T19:15:58.918Z,28.53
2018-02-17T19:18:28.297Z,30.90
2018-02-17T19:20:55.908Z,38.50
2018-02-17T19:23:24.306Z,55.10
2018-02-17T19:25:51.930Z,60.37
2018-02-17T19:28:19.522Z,59.63
2018-02-17T19:30:47.864Z,61.77
2018-02-17T19:33:15.451Z,57.10
2018-02-17T19:35:43.117Z,44.27
2018-02-17T19:38:11.301Z,39.70
2018-02-17T19:40:38.887Z,43.37
2018-02-17T19:43:06.504Z,35.13
2018-02-17T19:45:34.104Z,36.57
2018-02-17T19:48:02.484Z,36.50
2018-02-17T19:50:30.852Z,34.23
2018-02-17T19:52:58.432Z,37.23
2018-02-17T19:55:26.045Z,38.30
2018-02-17T19:57:53.712Z,40.57
2018-02-17T20:00:21.285Z,39.47
2018-02-17T20:02:48.853Z,37.53
2018-02-17T20:05:16.510Z,30.50
2018-02-17T20:07:44.185Z,32.30
2018-02-17T20:10:11.813Z,34.33
2018-02-17T20:12:39.413Z,27.67
2018-02-17T20:15:06.990Z,28.23
2018-02-17T20:17:35.463Z,28.27
2018-02-17T20:20:03.691Z,25.20
2018-02-17T20:22:31.307Z,37.53
2018-02-17T20:24:58.909Z,28.57
2018-02-17T20:27:26.547Z,34.60
2018-02-17T20:29:54.116Z,36.67
2018-02-17T20:32:21.708Z,32.77
2018-02-17T20:34:49.325Z,35.83
2018-02-17T20:37:16.896Z,33.43
2018-02-17T20:39:44.600Z,32.10
2018-02-17T20:42:12.184Z,30.97
2018-02-17T20:44:40.562Z,30.13
2018-02-17T20:47:08.941Z,29.17
2018-02-17T20:49:37.421Z,32.90
2018-02-17T20:52:05.011Z,37.97
2018-02-17T20:54:33.373Z,31.60
2018-02-17T20:57:01.001Z,34.03
2018-02-17T20:59:28.636Z,34.20
2018-02-17T21:01:56.224Z,31.10
2018-02-17T21:04:23.819Z,34.50
2018-02-17T21:06:52.197Z,32.53
2018-02-17T21:09:19.790Z,32.77
2018-02-17T21:11:47.403Z,33.80
2018-02-17T21:14:15.014Z,29.53
2018-02-17T21:16:42.648Z,37.60
2018-02-17T21:19:10.270Z,34.23
2018-02-17T21:21:37.902Z,32.33
2018-02-17T21:24:05.484Z,35.37
2018-02-17T21:26:33.792Z,33.37
2018-02-17T21:29:02.173Z,35.73
2018-02-17T21:31:29.832Z,35.33
2018-02-17T21:33:58.526Z,37.13
2018-02-17T21:36:26.144Z,32.77
2018-02-17T21:38:53.777Z,34.33
2018-02-17T21:41:21.431Z,39.43
2018-02-17T21:43:49.025Z,40.40
2018-02-17T21:46:17.308Z,42.97
2018-02-17T21:48:45.836Z,35.67
2018-02-17T21:51:14.176Z,39.80
2018-02-17T21:53:41.858Z,39.50
2018-02-17T21:56:09.942Z,35.73
2018-02-17T22:11:51.748Z,41.83
2018-02-17T22:14:20.249Z,37.07
2018-02-17T22:16:47.845Z,39.53
2018-02-17T22:19:15.449Z,38.87
2018-02-17T22:21:43.028Z,38.80
2018-02-17T22:24:11.377Z,36.93
2018-02-17T22:26:38.988Z,38.20
2018-02-17T22:29:06.571Z,38.50
2018-02-17T22:31:34.217Z,41.87
2018-02-17T22:34:01.837Z,41.00
2018-02-17T22:36:29.414Z,39.47
2018-02-17T22:38:57.085Z,38.40
2018-02-17T22:41:25.465Z,39.30
2018-02-17T22:43:53.039Z,41.83
2018-02-17T22:46:21.385Z,39.70
2018-02-17T22:48:48.950Z,37.43
2018-02-17T22:51:16.522Z,38.83
2018-02-17T22:53:44.104Z,36.13
2018-02-17T22:56:11.707Z,39.40
2018-02-17T22:58:39.294Z,44.93
2018-02-17T23:01:06.926Z,40.17
2018-02-17T23:03:35.377Z,38.50
2018-02-17T23:06:02.963Z,39.40
2018-02-17T23:08:30.563Z,38.13
2018-02-17T23:10:58.171Z,41.53
2018-02-17T23:13:25.767Z,32.77
2018-02-17T23:15:54.141Z,39.40
2018-02-17T23:18:21.739Z,43.87
2018-02-17T23:20:49.345Z,44.77
2018-02-17T23:23:16.943Z,35.90
2018-02-17T23:25:45.361Z,38.17
2018-02-17T23:28:12.960Z,43.53
2018-02-17T23:30:40.613Z,36.50
2018-02-17T23:33:08.238Z,39.80
2018-02-17T23:35:36.644Z,40.03
2018-02-17T23:38:04.224Z,41.87
2018-02-17T23:40:31.832Z,39.93
2018-02-17T23:42:59.431Z,39.20
2018-02-17T23:45:27.028Z,37.63
2018-02-17T23:47:54.717Z,37.50
2018-02-17T23:50:22.358Z,36.17
2018-02-17T23:52:49.963Z,41.00
2018-02-17T23:55:17.542Z,41.40
2018-02-17T23:57:46.703Z,38.30
